Latest METARs, TAFs and NOTAMs for ETSI


---------------------------------------------------------------------------
	(OBSERVATIONS)
ETSI 260120Z AUTO 07005KT //// // ////// 14/13 Q1020 ///=
ETSI 260020Z AUTO 05002KT //// // ////// 14/13 Q1020 ///=
ETSI 252320Z AUTO 07003KT //// // ////// 15/14 Q1020 ///=
---------------------------------------------------------------------------
	(FC)
TAF ETSI 251011Z 2511/2520 07005KT 9999 NSW FEW035
             CANCEL 1100=
---------------------------------------------------------------------------
	(TERMINAL AREA FORECAST)
ETSI 251011Z 2511/2520 07005KT 9999 NSW FEW035
    CANCEL 1100=
---------------------------------------------------------------------------
	(NOTAMS)


ETSI D0451/18 AEROBATIC TRAINING AREA ESTABLISHED 3NM RADIUS
    CENTERED ON 484200N 0113200E INGOLSTADT/MANCHING AIRFIELD.
    GND - 6000FT AMSL, SAT SUN 0700-SS, OCT 03 0700-SS, 30 SEP
    07:00 2018 UNTIL 27 OCT 16:03 2018. CREATED: 12 MAR 07:20
    2018

ETSI D0452/18 AEROBATIC TRAINING AREA ESTABLISHED 3NM RADIUS
    CENTERED ON 484200N 0113200E INGOLSTADT/MANCHING AIRFIELD.
    GND - 6000FT AMSL, SAT SUN 0800-SS, NOV 01 DEC 25 26 0800-SS,
    28 OCT 08:00 2018 UNTIL 30 DEC 15:27 2018. CREATED: 12 MAR
    07:23 2018

ETSI D0453/18 AEROBATIC TRAINING AREA ESTABLISHED 3NM RADIUS
    CENTERED ON 484200N 0113200E INGOLSTADT/MANCHING AIRFIELD.
    GND - 6000FT AMSL, SAT SUN 0700-SS, MAR 29 APR 02 MAY 01
    10 21 31 0700-SS, 25 MAR 07:00 2018 UNTIL 24 JUN 19:21 2018.
    CREATED: 12 MAR 07:26 2018

ETSI D0454/18 AEROBATIC TRAINING AREA ESTABLISHED 3NM RADIUS
    CENTERED ON 484200N 0113200E INGOLSTADT/MANCHING AIRFIELD.
    GND - 6000FT AMSL, SAT SUN 0700-SS, AUG 15 0700-SS, 30 JUN
    07:00 2018 UNTIL 29 SEP 16:57 2018. CREATED: 12 MAR 07:28
    2018

ETSI P2129/18 NO APCH END ARRESTMENT FOR RWY07L. 19 MAR 08:00
    2018 UNTIL 15 JUN 13:00 2018. CREATED: 16 MAR 09:53 2018

ETSI P2130/18 AD MIL OPENING HOURS CHANGED TO: MON-THU 0700-1400
    FR 0700-1100. 26 MAR 07:00 2018 UNTIL 21 JUN 11:00 2018.
    CREATED: 16 MAR 09:54 2018

ETSI P3628/18 PAR RWY 25L/07R OUT OF SERVICE. 15 MAY 06:14 2018
    UNTIL 10 AUG 12:00 2018. CREATED: 15 MAY 06:25 2018

ETSI P3629/18 PAR RWY 25R/07L OUT OF SERVICE. 15 MAY 06:20 2018
    UNTIL 10 AUG 12:00 2018. CREATED: 15 MAY 06:27 2018

ETSI P3630/18 FREQUENCY 362.300 OUT OF SERVICE. 15 MAY 06:26
    2018 UNTIL 10 AUG 12:00 2018. CREATED: 15 MAY 06:29 2018

ETSI P3631/18 RUNWAY 25L CABLE NO.1 AND RUNWAY 07R CABLE NO.4
    NOT AVAILABLE. 15 MAY 06:27 2018 UNTIL 10 AUG 12:00 2018.
    CREATED: 15 MAY 06:34 2018

ETSI P3632/18 NO SRA POSSIBLE. 15 MAY 06:20 2018 UNTIL 10 AUG
    12:00 2018. CREATED: 15 MAY 06:36 2018

ETSI P3633/18 LIMITED RADAR COVERAGE BELOW 5000FT MSL. DETAILED
    INFORMATION BY INGO RADAR. 15 MAY 06:22 2018 UNTIL 10 AUG
    12:00 2018. CREATED: 15 MAY 06:37 2018

ETSI P3886/18 RWY EDGE LIGHTS RWY25L: EVERY SECOND LIGHT OUT
    OF SERVICE. 24 MAY 13:10 2018 UNTIL 30 MAY 16:00 2018. CREATED:
    24 MAY 13:13 2018

ETSI P3889/18 DISTANCE MARKER NORTH OF RWY25L OUT OF SERVICE.
    24 MAY 13:23 2018 UNTIL 30 MAY 16:00 2018. CREATED: 24 MAY
    13:34 2018

ETSI P3890/18 MALFUNCTION OF LIGHTING SYSTEM RWY07R - DETAILED
    INFORMATION VIA TOWER. 24 MAY 13:27 2018 UNTIL 30 MAY 16:00
    2018. CREATED: 24 MAY 13:36 2018

ETSI P3920/18 DUE TO FIRE FIGHTING EXERCISE ACTIVE RWY MAY BE
    CLOSED FOR UP TO ONE HOUR. 28 MAY 12:00 2018 UNTIL 28 MAY
    14:00 2018. CREATED: 25 MAY 07:04 2018

ETSI P3933/18 RWY 25R/07L CLSD DUE TO DAMAGE. 25 MAY 08:13 2018
    UNTIL 20 JUL 12:00 2018. CREATED: 25 MAY 08:16 2018

ETSI P3942/18 INGOLSTADT ILS RWY25L OUT OF SERVICE. 25 MAY 09:01
    2018 UNTIL 30 MAY 14:00 2018. CREATED: 25 MAY 09:03 2018

---------------------------------------------------------------------------